sensor_id;sensor_type;location;lat;lon;timestamp;temperature;humidity
56044;DHT22;41912;51.022;3.664;2022-10-16T00:01:19;15.30;99.90
56044;DHT22;41912;51.022;3.664;2022-10-16T00:03:46;15.30;99.90
56044;DHT22;41912;51.022;3.664;2022-10-16T00:06:13;15.00;99.90
56044;DHT22;41912;51.022;3.664;2022-10-16T00:08:39;15.20;99.90
56044;DHT22;41912;51.022;3.664;2022-10-16T00:11:14;15.10;99.90
56044;DHT22;41912;51.022;3.664;2022-10-16T00:13:43;15.10;99.90
56044;DHT22;41912;51.022;3.664;2022-10-16T00:16:10;15.10;99.90
56044;DHT22;41912;51.022;3.664;2022-10-16T00:18:36;15.10;99.90
56044;DHT22;41912;51.022;3.664;2022-10-16T00:21:23;14.90;99.90
56044;DHT22;41912;51.022;3.664;2022-10-16T00:23:54;15.00;99.90
56044;DHT22;41912;51.022;3.664;2022-10-16T00:26:20;15.00;99.90
56044;DHT22;41912;51.022;3.664;2022-10-16T00:28:50;15.00;99.90
56044;DHT22;41912;51.022;3.664;2022-10-16T00:31:18;15.00;99.90
56044;DHT22;41912;51.022;3.664;2022-10-16T00:33:44;15.00;99.90
56044;DHT22;41912;51.022;3.664;2022-10-16T00:36:12;15.00;99.90
56044;DHT22;41912;51.022;3.664;2022-10-16T00:38:38;15.00;99.90
56044;DHT22;41912;51.022;3.664;2022-10-16T00:41:05;15.00;99.90
56044;DHT22;41912;51.022;3.664;2022-10-16T00:46:41;15.00;99.90
56044;DHT22;41912;51.022;3.664;2022-10-16T00:49:18;15.00;99.90
56044;DHT22;41912;51.022;3.664;2022-10-16T00:51:50;14.90;99.90
56044;DHT22;41912;51.022;3.664;2022-10-16T00:54:21;14.90;99.90
56044;DHT22;41912;51.022;3.664;2022-10-16T00:56:49;14.90;99.90
56044;DHT22;41912;51.022;3.664;2022-10-16T00:59:23;14.90;99.90
56044;DHT22;41912;51.022;3.664;2022-10-16T01:01:50;14.90;99.90
56044;DHT22;41912;51.022;3.664;2022-10-16T01:04:17;14.90;99.90
56044;DHT22;41912;51.022;3.664;2022-10-16T01:06:49;14.90;99.90
56044;DHT22;41912;51.022;3.664;2022-10-16T01:14:54;14.80;99.90
56044;DHT22;41912;51.022;3.664;2022-10-16T01:22:38;14.80;99.90
56044;DHT22;41912;51.022;3.664;2022-10-16T01:25:09;14.80;99.90
56044;DHT22;41912;51.022;3.664;2022-10-16T01:27:40;14.80;99.90
56044;DHT22;41912;51.022;3.664;2022-10-16T01:30:26;14.80;99.90
56044;DHT22;41912;51.022;3.664;2022-10-16T01:35:38;14.80;99.90
56044;DHT22;41912;51.022;3.664;2022-10-16T01:40:58;14.70;99.90
56044;DHT22;41912;51.022;3.664;2022-10-16T01:43:33;14.70;99.90
56044;DHT22;41912;51.022;3.664;2022-10-16T01:46:01;14.80;99.90
56044;DHT22;41912;51.022;3.664;2022-10-16T01:48:27;14.80;99.90
56044;DHT22;41912;51.022;3.664;2022-10-16T01:51:01;14.70;99.90
56044;DHT22;41912;51.022;3.664;2022-10-16T01:53:28;14.70;99.90
56044;DHT22;41912;51.022;3.664;2022-10-16T01:55:55;14.70;99.90
56044;DHT22;41912;51.022;3.664;2022-10-16T01:58:23;14.70;99.90
56044;DHT22;41912;51.022;3.664;2022-10-16T02:00:52;14.70;99.90
56044;DHT22;41912;51.022;3.664;2022-10-16T02:03:19;14.70;99.90
56044;DHT22;41912;51.022;3.664;2022-10-16T02:08:17;14.70;99.90
56044;DHT22;41912;51.022;3.664;2022-10-16T02:10:42;14.70;99.90
56044;DHT22;41912;51.022;3.664;2022-10-16T02:13:12;14.60;99.90
56044;DHT22;41912;51.022;3.664;2022-10-16T02:15:39;14.70;99.90
56044;DHT22;41912;51.022;3.664;2022-10-16T02:18:06;14.70;99.90
56044;DHT22;41912;51.022;3.664;2022-10-16T02:21:11;14.70;99.90
56044;DHT22;41912;51.022;3.664;2022-10-16T02:26:15;14.70;99.90
56044;DHT22;41912;51.022;3.664;2022-10-16T02:28:46;14.70;99.90
56044;DHT22;41912;51.022;3.664;2022-10-16T02:31:17;14.70;99.90
56044;DHT22;41912;51.022;3.664;2022-10-16T02:33:44;14.70;99.90
56044;DHT22;41912;51.022;3.664;2022-10-16T02:36:11;14.70;99.90
56044;DHT22;41912;51.022;3.664;2022-10-16T02:38:38;14.70;99.90
56044;DHT22;41912;51.022;3.664;2022-10-16T02:41:05;14.70;99.90
56044;DHT22;41912;51.022;3.664;2022-10-16T02:43:31;14.70;99.90
56044;DHT22;41912;51.022;3.664;2022-10-16T02:45:56;14.70;99.90
56044;DHT22;41912;51.022;3.664;2022-10-16T02:48:22;14.70;99.90
56044;DHT22;41912;51.022;3.664;2022-10-16T02:50:48;14.70;99.90
56044;DHT22;41912;51.022;3.664;2022-10-16T02:53:13;14.70;99.90
56044;DHT22;41912;51.022;3.664;2022-10-16T02:55:39;14.70;99.90
56044;DHT22;41912;51.022;3.664;2022-10-16T02:58:05;14.70;99.90
56044;DHT22;41912;51.022;3.664;2022-10-16T03:00:30;14.70;99.90
56044;DHT22;41912;51.022;3.664;2022-10-16T03:02:56;14.70;99.90
56044;DHT22;41912;51.022;3.664;2022-10-16T03:05:21;14.70;99.90
56044;DHT22;41912;51.022;3.664;2022-10-16T03:07:47;14.70;99.90
56044;DHT22;41912;51.022;3.664;2022-10-16T03:10:13;14.70;99.90
56044;DHT22;41912;51.022;3.664;2022-10-16T03:12:38;14.60;99.90
56044;DHT22;41912;51.022;3.664;2022-10-16T03:15:04;14.60;99.90
56044;DHT22;41912;51.022;3.664;2022-10-16T03:17:31;14.60;99.90
56044;DHT22;41912;51.022;3.664;2022-10-16T03:19:57;14.60;99.90
56044;DHT22;41912;51.022;3.664;2022-10-16T03:22:23;14.60;99.90
56044;DHT22;41912;51.022;3.664;2022-10-16T03:24:48;14.60;99.90
56044;DHT22;41912;51.022;3.664;2022-10-16T03:27:14;14.60;99.90
56044;DHT22;41912;51.022;3.664;2022-10-16T03:29:39;14.60;99.90
56044;DHT22;41912;51.022;3.664;2022-10-16T03:32:05;14.60;99.90
56044;DHT22;41912;51.022;3.664;2022-10-16T03:34:31;14.60;99.90
56044;DHT22;41912;51.022;3.664;2022-10-16T03:36:57;14.50;99.90
56044;DHT22;41912;51.022;3.664;2022-10-16T03:39:22;14.50;99.90
56044;DHT22;41912;51.022;3.664;2022-10-16T03:41:48;14.50;99.90
56044;DHT22;41912;51.022;3.664;2022-10-16T03:44:14;14.50;99.90
56044;DHT22;41912;51.022;3.664;2022-10-16T03:46:40;14.50;99.90
56044;DHT22;41912;51.022;3.664;2022-10-16T03:49:05;14.50;99.90
56044;DHT22;41912;51.022;3.664;2022-10-16T03:51:31;14.50;99.90
56044;DHT22;41912;51.022;3.664;2022-10-16T03:53:57;14.50;99.90
56044;DHT22;41912;51.022;3.664;2022-10-16T03:56:22;14.50;99.90
56044;DHT22;41912;51.022;3.664;2022-10-16T03:58:48;14.40;99.90
56044;DHT22;41912;51.022;3.664;2022-10-16T04:01:14;14.40;99.90
56044;DHT22;41912;51.022;3.664;2022-10-16T04:03:39;14.40;99.90
56044;DHT22;41912;51.022;3.664;2022-10-16T04:06:05;14.40;99.90
56044;DHT22;41912;51.022;3.664;2022-10-16T04:08:31;14.40;99.90
56044;DHT22;41912;51.022;3.664;2022-10-16T04:10:59;14.40;99.90
56044;DHT22;41912;51.022;3.664;2022-10-16T04:13:25;14.40;99.90
56044;DHT22;41912;51.022;3.664;2022-10-16T04:15:50;14.40;99.90
56044;DHT22;41912;51.022;3.664;2022-10-16T04:18:16;14.40;99.90
56044;DHT22;41912;51.022;3.664;2022-10-16T04:20:41;14.30;99.90
56044;DHT22;41912;51.022;3.664;2022-10-16T04:23:07;14.30;99.90
56044;DHT22;41912;51.022;3.664;2022-10-16T04:25:33;14.30;99.90
56044;DHT22;41912;51.022;3.664;2022-10-16T04:27:58;14.30;99.90
56044;DHT22;41912;51.022;3.664;2022-10-16T04:30:24;14.30;99.90
56044;DHT22;41912;51.022;3.664;2022-10-16T04:32:50;14.30;99.90
56044;DHT22;41912;51.022;3.664;2022-10-16T04:35:21;14.30;99.90
56044;DHT22;41912;51.022;3.664;2022-10-16T04:37:47;14.30;99.90
56044;DHT22;41912;51.022;3.664;2022-10-16T04:40:13;14.30;99.90
56044;DHT22;41912;51.022;3.664;2022-10-16T04:42:39;14.30;99.90
56044;DHT22;41912;51.022;3.664;2022-10-16T04:45:06;14.30;99.90
56044;DHT22;41912;51.022;3.664;2022-10-16T04:47:32;14.30;99.90
56044;DHT22;41912;51.022;3.664;2022-10-16T04:49:58;14.20;99.90
56044;DHT22;41912;51.022;3.664;2022-10-16T04:52:26;14.20;99.90
56044;DHT22;41912;51.022;3.664;2022-10-16T04:54:52;14.20;99.90
56044;DHT22;41912;51.022;3.664;2022-10-16T04:57:19;14.20;99.90
56044;DHT22;41912;51.022;3.664;2022-10-16T04:59:45;14.20;99.90
56044;DHT22;41912;51.022;3.664;2022-10-16T05:02:10;14.20;99.90
56044;DHT22;41912;51.022;3.664;2022-10-16T05:04:36;14.20;99.90
56044;DHT22;41912;51.022;3.664;2022-10-16T05:07:01;14.20;99.90
56044;DHT22;41912;51.022;3.664;2022-10-16T05:09:27;14.20;99.90
56044;DHT22;41912;51.022;3.664;2022-10-16T05:11:53;14.20;99.90
56044;DHT22;41912;51.022;3.664;2022-10-16T05:14:18;14.20;99.90
56044;DHT22;41912;51.022;3.664;2022-10-16T05:16:44;14.20;99.90
56044;DHT22;41912;51.022;3.664;2022-10-16T05:19:10;14.20;99.90
56044;DHT22;41912;51.022;3.664;2022-10-16T05:21:35;14.20;99.90
56044;DHT22;41912;51.022;3.664;2022-10-16T05:24:01;14.20;99.90
56044;DHT22;41912;51.022;3.664;2022-10-16T05:26:27;14.20;99.90
56044;DHT22;41912;51.022;3.664;2022-10-16T05:28:52;14.20;99.90
56044;DHT22;41912;51.022;3.664;2022-10-16T05:31:18;14.20;99.90
56044;DHT22;41912;51.022;3.664;2022-10-16T05:33:44;14.30;99.90
56044;DHT22;41912;51.022;3.664;2022-10-16T05:36:10;14.30;99.90
56044;DHT22;41912;51.022;3.664;2022-10-16T05:38:36;14.30;99.90
56044;DHT22;41912;51.022;3.664;2022-10-16T05:41:03;14.30;99.90
56044;DHT22;41912;51.022;3.664;2022-10-16T05:43:29;14.30;99.90
56044;DHT22;41912;51.022;3.664;2022-10-16T05:45:59;14.30;99.90
56044;DHT22;41912;51.022;3.664;2022-10-16T05:48:25;14.30;99.90
56044;DHT22;41912;51.022;3.664;2022-10-16T05:51:03;14.40;99.90
56044;DHT22;41912;51.022;3.664;2022-10-16T05:53:32;14.40;99.90
56044;DHT22;41912;51.022;3.664;2022-10-16T05:55:58;14.40;99.90
56044;DHT22;41912;51.022;3.664;2022-10-16T05:58:25;14.40;99.90
56044;DHT22;41912;51.022;3.664;2022-10-16T06:00:59;14.40;99.90
56044;DHT22;41912;51.022;3.664;2022-10-16T06:03:25;14.40;99.90
56044;DHT22;41912;51.022;3.664;2022-10-16T06:05:51;14.40;99.90
56044;DHT22;41912;51.022;3.664;2022-10-16T06:08:18;14.30;99.90
56044;DHT22;41912;51.022;3.664;2022-10-16T06:10:44;14.30;99.90
56044;DHT22;41912;51.022;3.664;2022-10-16T06:13:11;14.30;99.90
56044;DHT22;41912;51.022;3.664;2022-10-16T06:15:38;14.20;99.90
56044;DHT22;41912;51.022;3.664;2022-10-16T06:18:05;14.20;99.90
56044;DHT22;41912;51.022;3.664;2022-10-16T06:20:30;14.20;99.90
56044;DHT22;41912;51.022;3.664;2022-10-16T06:22:57;14.20;99.90
56044;DHT22;41912;51.022;3.664;2022-10-16T06:25:22;14.20;99.90
56044;DHT22;41912;51.022;3.664;2022-10-16T06:27:48;14.20;99.90
56044;DHT22;41912;51.022;3.664;2022-10-16T06:30:14;14.20;99.90
56044;DHT22;41912;51.022;3.664;2022-10-16T06:32:40;14.20;99.90
56044;DHT22;41912;51.022;3.664;2022-10-16T06:35:05;14.20;99.90
56044;DHT22;41912;51.022;3.664;2022-10-16T06:37:31;14.20;99.90
56044;DHT22;41912;51.022;3.664;2022-10-16T06:39:57;14.20;99.90
56044;DHT22;41912;51.022;3.664;2022-10-16T06:42:22;14.20;99.90
56044;DHT22;41912;51.022;3.664;2022-10-16T06:44:48;14.20;99.90
56044;DHT22;41912;51.022;3.664;2022-10-16T06:47:14;14.20;99.90
56044;DHT22;41912;51.022;3.664;2022-10-16T06:49:39;14.20;99.90
56044;DHT22;41912;51.022;3.664;2022-10-16T06:52:05;14.30;99.90
56044;DHT22;41912;51.022;3.664;2022-10-16T06:54:30;14.30;99.90
56044;DHT22;41912;51.022;3.664;2022-10-16T06:56:56;14.30;99.90
56044;DHT22;41912;51.022;3.664;2022-10-16T06:59:22;14.30;99.90
56044;DHT22;41912;51.022;3.664;2022-10-16T07:01:48;14.30;99.90
56044;DHT22;41912;51.022;3.664;2022-10-16T07:04:13;14.30;99.90
56044;DHT22;41912;51.022;3.664;2022-10-16T07:06:40;14.30;99.90
56044;DHT22;41912;51.022;3.664;2022-10-16T07:09:08;14.40;99.90
56044;DHT22;41912;51.022;3.664;2022-10-16T07:11:36;14.30;99.90
56044;DHT22;41912;51.022;3.664;2022-10-16T07:14:01;14.30;99.90
56044;DHT22;41912;51.022;3.664;2022-10-16T07:16:29;14.40;99.90
56044;DHT22;41912;51.022;3.664;2022-10-16T07:18:56;14.40;99.90
56044;DHT22;41912;51.022;3.664;2022-10-16T07:21:27;14.50;99.90
56044;DHT22;41912;51.022;3.664;2022-10-16T07:23:59;14.40;99.90
56044;DHT22;41912;51.022;3.664;2022-10-16T07:26:28;14.40;99.90
56044;DHT22;41912;51.022;3.664;2022-10-16T07:28:54;14.40;99.90
56044;DHT22;41912;51.022;3.664;2022-10-16T07:31:20;14.40;99.90
56044;DHT22;41912;51.022;3.664;2022-10-16T07:33:47;14.40;99.90
56044;DHT22;41912;51.022;3.664;2022-10-16T07:36:15;14.50;99.90
56044;DHT22;41912;51.022;3.664;2022-10-16T07:38:44;14.50;99.90
56044;DHT22;41912;51.022;3.664;2022-10-16T07:41:19;14.50;99.90
56044;DHT22;41912;51.022;3.664;2022-10-16T07:43:47;14.60;99.90
56044;DHT22;41912;51.022;3.664;2022-10-16T07:46:13;14.60;99.90
56044;DHT22;41912;51.022;3.664;2022-10-16T07:48:39;14.60;99.90
56044;DHT22;41912;51.022;3.664;2022-10-16T07:51:06;14.70;99.90
56044;DHT22;41912;51.022;3.664;2022-10-16T07:53:33;14.70;99.90
56044;DHT22;41912;51.022;3.664;2022-10-16T07:56:00;14.60;99.90
56044;DHT22;41912;51.022;3.664;2022-10-16T07:58:27;14.70;99.90
56044;DHT22;41912;51.022;3.664;2022-10-16T08:00:53;14.70;99.90
56044;DHT22;41912;51.022;3.664;2022-10-16T08:03:19;14.80;99.90
56044;DHT22;41912;51.022;3.664;2022-10-16T08:05:45;14.80;99.90
56044;DHT22;41912;51.022;3.664;2022-10-16T08:08:14;14.90;99.90
56044;DHT22;41912;51.022;3.664;2022-10-16T08:10:41;14.90;99.90
56044;DHT22;41912;51.022;3.664;2022-10-16T08:13:06;15.00;99.90
56044;DHT22;41912;51.022;3.664;2022-10-16T08:15:32;15.00;99.90
56044;DHT22;41912;51.022;3.664;2022-10-16T08:17:59;15.10;99.90
56044;DHT22;41912;51.022;3.664;2022-10-16T08:20:27;15.10;99.90
56044;DHT22;41912;51.022;3.664;2022-10-16T08:22:53;15.20;99.90
56044;DHT22;41912;51.022;3.664;2022-10-16T08:25:20;15.20;99.90
56044;DHT22;41912;51.022;3.664;2022-10-16T08:27:46;15.30;99.90
56044;DHT22;41912;51.022;3.664;2022-10-16T08:30:12;15.30;99.90
56044;DHT22;41912;51.022;3.664;2022-10-16T08:32:38;15.40;99.90
56044;DHT22;41912;51.022;3.664;2022-10-16T08:35:04;15.30;99.90
56044;DHT22;41912;51.022;3.664;2022-10-16T08:37:31;15.30;99.90
56044;DHT22;41912;51.022;3.664;2022-10-16T08:39:56;15.40;99.90
56044;DHT22;41912;51.022;3.664;2022-10-16T08:45:32;15.40;99.90
56044;DHT22;41912;51.022;3.664;2022-10-16T08:48:09;15.50;99.90
56044;DHT22;41912;51.022;3.664;2022-10-16T08:50:40;15.50;99.90
56044;DHT22;41912;51.022;3.664;2022-10-16T08:53:06;15.50;99.90
56044;DHT22;41912;51.022;3.664;2022-10-16T08:55:39;15.60;99.90
56044;DHT22;41912;51.022;3.664;2022-10-16T08:58:17;15.60;99.90
56044;DHT22;41912;51.022;3.664;2022-10-16T09:00:50;15.60;99.90
56044;DHT22;41912;51.022;3.664;2022-10-16T09:08:51;15.70;99.90
56044;DHT22;41912;51.022;3.664;2022-10-16T09:11:44;15.70;99.90
56044;DHT22;41912;51.022;3.664;2022-10-16T09:17:37;15.80;99.90
56044;DHT22;41912;51.022;3.664;2022-10-16T09:20:28;15.90;99.90
56044;DHT22;41912;51.022;3.664;2022-10-16T09:25:50;16.00;99.90
56044;DHT22;41912;51.022;3.664;2022-10-16T09:28:17;16.10;99.90
56044;DHT22;41912;51.022;3.664;2022-10-16T09:30:44;16.10;99.90
56044;DHT22;41912;51.022;3.664;2022-10-16T09:33:11;16.20;99.90
56044;DHT22;41912;51.022;3.664;2022-10-16T09:35:42;16.30;99.90
56044;DHT22;41912;51.022;3.664;2022-10-16T09:38:09;16.30;99.90
56044;DHT22;41912;51.022;3.664;2022-10-16T09:40:46;16.40;99.90
56044;DHT22;41912;51.022;3.664;2022-10-16T09:48:44;16.50;99.90
56044;DHT22;41912;51.022;3.664;2022-10-16T09:51:31;16.60;99.90
56044;DHT22;41912;51.022;3.664;2022-10-16T09:54:01;16.60;99.90
56044;DHT22;41912;51.022;3.664;2022-10-16T09:56:32;16.70;99.90
56044;DHT22;41912;51.022;3.664;2022-10-16T09:59:19;16.70;99.90
56044;DHT22;41912;51.022;3.664;2022-10-16T10:01:52;16.80;99.90
56044;DHT22;41912;51.022;3.664;2022-10-16T10:04:19;16.90;99.90
56044;DHT22;41912;51.022;3.664;2022-10-16T10:06:46;16.90;99.90
56044;DHT22;41912;51.022;3.664;2022-10-16T10:11:59;17.00;99.90
56044;DHT22;41912;51.022;3.664;2022-10-16T10:17:10;17.20;99.90
56044;DHT22;41912;51.022;3.664;2022-10-16T10:22:43;17.30;99.90
56044;DHT22;41912;51.022;3.664;2022-10-16T10:36:00;17.50;99.90
56044;DHT22;41912;51.022;3.664;2022-10-16T10:46:51;17.70;99.90
56044;DHT22;41912;51.022;3.664;2022-10-16T10:58:21;18.20;99.90
56044;DHT22;41912;51.022;3.664;2022-10-16T11:03:41;18.30;99.90
56044;DHT22;41912;51.022;3.664;2022-10-16T11:06:20;18.30;99.70
56044;DHT22;41912;51.022;3.664;2022-10-16T11:08:58;18.40;99.90
56044;DHT22;41912;51.022;3.664;2022-10-16T11:11:32;18.50;99.90
56044;DHT22;41912;51.022;3.664;2022-10-16T11:14:10;18.50;99.10
56044;DHT22;41912;51.022;3.664;2022-10-16T11:16:52;18.50;98.90
56044;DHT22;41912;51.022;3.664;2022-10-16T11:19:39;18.50;98.50
56044;DHT22;41912;51.022;3.664;2022-10-16T11:24:57;18.40;98.90
56044;DHT22;41912;51.022;3.664;2022-10-16T11:27:43;18.50;99.40
56044;DHT22;41912;51.022;3.664;2022-10-16T11:30:22;18.50;99.50
56044;DHT22;41912;51.022;3.664;2022-10-16T11:35:31;18.80;99.60
56044;DHT22;41912;51.022;3.664;2022-10-16T11:37:58;18.90;99.20
56044;DHT22;41912;51.022;3.664;2022-10-16T11:40:32;18.90;98.80
56044;DHT22;41912;51.022;3.664;2022-10-16T11:43:27;18.90;97.80
56044;DHT22;41912;51.022;3.664;2022-10-16T11:45:58;19.00;97.80
56044;DHT22;41912;51.022;3.664;2022-10-16T11:48:50;18.90;98.20
56044;DHT22;41912;51.022;3.664;2022-10-16T11:51:40;19.00;98.40
56044;DHT22;41912;51.022;3.664;2022-10-16T11:57:01;19.00;97.70
56044;DHT22;41912;51.022;3.664;2022-10-16T12:05:15;19.10;97.60
56044;DHT22;41912;51.022;3.664;2022-10-16T12:07:49;19.00;97.30
56044;DHT22;41912;51.022;3.664;2022-10-16T12:10:27;19.10;97.00
56044;DHT22;41912;51.022;3.664;2022-10-16T12:12:53;19.10;97.00
56044;DHT22;41912;51.022;3.664;2022-10-16T12:15:26;19.10;97.10
56044;DHT22;41912;51.022;3.664;2022-10-16T12:17:52;19.10;96.50
56044;DHT22;41912;51.022;3.664;2022-10-16T12:20:20;19.10;96.50
56044;DHT22;41912;51.022;3.664;2022-10-16T12:22:51;19.10;96.90
56044;DHT22;41912;51.022;3.664;2022-10-16T12:26:23;19.10;96.70
56044;DHT22;41912;51.022;3.664;2022-10-16T12:28:22;19.10;96.50
56044;DHT22;41912;51.022;3.664;2022-10-16T12:30:59;19.10;96.60
56044;DHT22;41912;51.022;3.664;2022-10-16T12:33:29;19.20;96.70
56044;DHT22;41912;51.022;3.664;2022-10-16T12:35:57;19.30;96.40
56044;DHT22;41912;51.022;3.664;2022-10-16T12:40:59;19.40;96.00
56044;DHT22;41912;51.022;3.664;2022-10-16T12:43:34;19.40;96.70
56044;DHT22;41912;51.022;3.664;2022-10-16T12:46:03;19.40;96.30
56044;DHT22;41912;51.022;3.664;2022-10-16T12:48:29;19.50;96.30
56044;DHT22;41912;51.022;3.664;2022-10-16T12:50:56;19.50;96.30
56044;DHT22;41912;51.022;3.664;2022-10-16T12:53:24;19.50;96.30
56044;DHT22;41912;51.022;3.664;2022-10-16T12:56:18;19.50;96.40
56044;DHT22;41912;51.022;3.664;2022-10-16T12:59:04;19.50;96.20
56044;DHT22;41912;51.022;3.664;2022-10-16T13:01:40;19.50;96.20
56044;DHT22;41912;51.022;3.664;2022-10-16T13:07:48;19.60;96.20
56044;DHT22;41912;51.022;3.664;2022-10-16T13:27:07;19.40;97.20
56044;DHT22;41912;51.022;3.664;2022-10-16T13:29:35;19.40;97.00
56044;DHT22;41912;51.022;3.664;2022-10-16T13:32:07;19.40;96.90
56044;DHT22;41912;51.022;3.664;2022-10-16T13:34:47;19.50;97.30
56044;DHT22;41912;51.022;3.664;2022-10-16T13:37:19;19.50;97.40
56044;DHT22;41912;51.022;3.664;2022-10-16T13:39:45;19.50;97.30
56044;DHT22;41912;51.022;3.664;2022-10-16T13:42:26;19.60;97.50
56044;DHT22;41912;51.022;3.664;2022-10-16T13:44:54;19.70;97.10
56044;DHT22;41912;51.022;3.664;2022-10-16T13:47:25;19.80;96.50
56044;DHT22;41912;51.022;3.664;2022-10-16T13:50:09;19.80;96.10
56044;DHT22;41912;51.022;3.664;2022-10-16T13:52:36;19.80;96.00
56044;DHT22;41912;51.022;3.664;2022-10-16T13:55:04;19.80;96.00
56044;DHT22;41912;51.022;3.664;2022-10-16T13:57:35;19.70;96.20
56044;DHT22;41912;51.022;3.664;2022-10-16T14:00:01;19.70;96.10
56044;DHT22;41912;51.022;3.664;2022-10-16T14:05:01;19.70;96.10
56044;DHT22;41912;51.022;3.664;2022-10-16T14:07:30;19.70;96.00
56044;DHT22;41912;51.022;3.664;2022-10-16T14:10:05;19.70;96.10
56044;DHT22;41912;51.022;3.664;2022-10-16T14:12:31;19.80;96.30
56044;DHT22;41912;51.022;3.664;2022-10-16T14:14:59;19.70;96.40
56044;DHT22;41912;51.022;3.664;2022-10-16T14:19:53;19.80;96.70
56044;DHT22;41912;51.022;3.664;2022-10-16T14:22:34;19.80;96.70
56044;DHT22;41912;51.022;3.664;2022-10-16T14:25:00;19.80;96.60
56044;DHT22;41912;51.022;3.664;2022-10-16T14:27:32;19.80;96.70
56044;DHT22;41912;51.022;3.664;2022-10-16T14:30:24;19.80;96.80
56044;DHT22;41912;51.022;3.664;2022-10-16T14:33:23;19.80;97.60
56044;DHT22;41912;51.022;3.664;2022-10-16T14:38:37;19.70;97.90
56044;DHT22;41912;51.022;3.664;2022-10-16T14:41:04;19.70;97.50
56044;DHT22;41912;51.022;3.664;2022-10-16T14:43:41;19.70;97.10
56044;DHT22;41912;51.022;3.664;2022-10-16T14:46:14;19.70;96.80
56044;DHT22;41912;51.022;3.664;2022-10-16T14:48:48;19.70;96.70
56044;DHT22;41912;51.022;3.664;2022-10-16T14:51:19;19.60;96.90
56044;DHT22;41912;51.022;3.664;2022-10-16T14:53:45;19.70;96.70
56044;DHT22;41912;51.022;3.664;2022-10-16T14:56:17;19.60;96.30
56044;DHT22;41912;51.022;3.664;2022-10-16T14:58:43;19.60;96.40
56044;DHT22;41912;51.022;3.664;2022-10-16T15:01:10;19.60;96.50
56044;DHT22;41912;51.022;3.664;2022-10-16T15:03:37;19.50;96.40
56044;DHT22;41912;51.022;3.664;2022-10-16T15:06:03;19.60;96.70
56044;DHT22;41912;51.022;3.664;2022-10-16T15:08:29;19.50;97.30
56044;DHT22;41912;51.022;3.664;2022-10-16T15:10:55;19.50;97.20
56044;DHT22;41912;51.022;3.664;2022-10-16T15:13:20;19.50;97.40
56044;DHT22;41912;51.022;3.664;2022-10-16T15:15:47;19.50;97.60
56044;DHT22;41912;51.022;3.664;2022-10-16T15:18:14;19.40;97.60
56044;DHT22;41912;51.022;3.664;2022-10-16T15:20:49;19.40;98.00
56044;DHT22;41912;51.022;3.664;2022-10-16T15:23:20;19.40;97.70
56044;DHT22;41912;51.022;3.664;2022-10-16T15:25:48;19.40;97.40
56044;DHT22;41912;51.022;3.664;2022-10-16T15:28:15;19.30;97.60
56044;DHT22;41912;51.022;3.664;2022-10-16T15:30:42;19.30;97.70
56044;DHT22;41912;51.022;3.664;2022-10-16T15:33:16;19.30;97.80
56044;DHT22;41912;51.022;3.664;2022-10-16T15:35:42;19.30;98.00
56044;DHT22;41912;51.022;3.664;2022-10-16T15:38:12;19.30;98.20
56044;DHT22;41912;51.022;3.664;2022-10-16T15:40:38;19.30;98.60
56044;DHT22;41912;51.022;3.664;2022-10-16T15:43:04;19.20;98.90
56044;DHT22;41912;51.022;3.664;2022-10-16T15:45:29;19.20;99.10
56044;DHT22;41912;51.022;3.664;2022-10-16T15:47:55;19.10;98.90
56044;DHT22;41912;51.022;3.664;2022-10-16T15:50:21;19.10;98.80
56044;DHT22;41912;51.022;3.664;2022-10-16T15:52:46;19.10;99.00
56044;DHT22;41912;51.022;3.664;2022-10-16T15:55:14;19.00;99.30
56044;DHT22;41912;51.022;3.664;2022-10-16T15:57:40;19.00;99.50
56044;DHT22;41912;51.022;3.664;2022-10-16T16:00:10;19.00;99.50
56044;DHT22;41912;51.022;3.664;2022-10-16T16:02:36;18.90;99.90
56044;DHT22;41912;51.022;3.664;2022-10-16T16:05:02;18.90;99.90
56044;DHT22;41912;51.022;3.664;2022-10-16T16:07:31;18.90;99.90
56044;DHT22;41912;51.022;3.664;2022-10-16T16:09:57;18.80;99.90
56044;DHT22;41912;51.022;3.664;2022-10-16T16:12:23;18.80;99.90
56044;DHT22;41912;51.022;3.664;2022-10-16T16:14:48;18.80;99.90
56044;DHT22;41912;51.022;3.664;2022-10-16T16:17:14;18.80;99.90
56044;DHT22;41912;51.022;3.664;2022-10-16T16:19:40;18.70;99.90
56044;DHT22;41912;51.022;3.664;2022-10-16T16:22:05;18.70;99.90
56044;DHT22;41912;51.022;3.664;2022-10-16T16:24:31;18.70;99.90
56044;DHT22;41912;51.022;3.664;2022-10-16T16:26:57;18.70;99.90
56044;DHT22;41912;51.022;3.664;2022-10-16T16:29:22;18.60;99.90
56044;DHT22;41912;51.022;3.664;2022-10-16T16:31:48;18.60;99.90
56044;DHT22;41912;51.022;3.664;2022-10-16T16:34:14;18.50;99.90
56044;DHT22;41912;51.022;3.664;2022-10-16T16:36:40;18.50;99.90
56044;DHT22;41912;51.022;3.664;2022-10-16T16:39:06;18.50;99.90
56044;DHT22;41912;51.022;3.664;2022-10-16T16:41:33;18.40;99.90
56044;DHT22;41912;51.022;3.664;2022-10-16T16:44:07;18.40;99.90
56044;DHT22;41912;51.022;3.664;2022-10-16T16:46:34;18.40;99.90
56044;DHT22;41912;51.022;3.664;2022-10-16T16:49:00;18.30;99.90
56044;DHT22;41912;51.022;3.664;2022-10-16T16:51:26;18.30;99.90
56044;DHT22;41912;51.022;3.664;2022-10-16T16:53:53;18.30;99.90
56044;DHT22;41912;51.022;3.664;2022-10-16T16:56:21;18.30;99.90
56044;DHT22;41912;51.022;3.664;2022-10-16T16:58:51;18.30;99.90
56044;DHT22;41912;51.022;3.664;2022-10-16T17:01:17;18.30;99.90
56044;DHT22;41912;51.022;3.664;2022-10-16T17:03:44;18.20;99.90
56044;DHT22;41912;51.022;3.664;2022-10-16T17:06:12;18.20;99.90
56044;DHT22;41912;51.022;3.664;2022-10-16T17:08:38;18.20;99.90
56044;DHT22;41912;51.022;3.664;2022-10-16T17:11:05;18.20;99.90
56044;DHT22;41912;51.022;3.664;2022-10-16T17:13:34;18.20;99.90
56044;DHT22;41912;51.022;3.664;2022-10-16T17:16:03;18.20;99.90
56044;DHT22;41912;51.022;3.664;2022-10-16T17:18:29;18.20;99.90
56044;DHT22;41912;51.022;3.664;2022-10-16T17:20:59;18.30;99.90
56044;DHT22;41912;51.022;3.664;2022-10-16T17:23:25;18.20;99.90
56044;DHT22;41912;51.022;3.664;2022-10-16T17:25:51;18.20;99.90
56044;DHT22;41912;51.022;3.664;2022-10-16T17:28:16;18.20;99.90
56044;DHT22;41912;51.022;3.664;2022-10-16T17:30:43;18.10;99.90
56044;DHT22;41912;51.022;3.664;2022-10-16T17:33:09;18.20;99.90
56044;DHT22;41912;51.022;3.664;2022-10-16T17:35:40;18.10;99.90
56044;DHT22;41912;51.022;3.664;2022-10-16T17:38:07;18.20;99.90
56044;DHT22;41912;51.022;3.664;2022-10-16T17:40:33;18.20;99.90
56044;DHT22;41912;51.022;3.664;2022-10-16T17:42:59;18.20;99.90
56044;DHT22;41912;51.022;3.664;2022-10-16T17:45:25;18.10;99.90
56044;DHT22;41912;51.022;3.664;2022-10-16T17:47:51;18.10;99.90
56044;DHT22;41912;51.022;3.664;2022-10-16T17:50:17;18.10;99.90